Погода Джоратна 2 недели

Апшеронский район, Азербайджан

14 - 27 апреля
  • 14апреля
    Сегодня
    +11°
    +20°
    Практически безоблачно
    ВремяПогодаТемператураВлажностьДавлениеВетер, м/сВероятность осадков
    01:00Ясно и безоблачно+12°C75 %762 мм4.7 м/с2 %
    04:00Ясно и безоблачно+11°C67 %761 мм5.4 м/с2 %
    07:00Ясно и безоблачно+11°C65 %761 мм5.7 м/с2 %
    10:00Небольшая облачность+18°C60 %762 мм3.8 м/с2 %
    13:00Практически безоблачно+20°C67 %761 мм1.3 м/с2 %
    16:00Облачно с прояснениями+19°C68 %761 мм1.5 м/с2 %
    19:00Облачно с прояснениями+16°C75 %762 мм0.2 м/с2 %
    22:00Облачно с прояснениями+13°C85 %763 мм0.4 м/с2 %
  • 15апреля
    Понедельник
    +13°
    +21°
    Облачно с прояснениями
    ВремяПогодаТемператураВлажностьДавлениеВетер, м/сВероятность осадков
    01:00Ясно и безоблачно+11°C90 %763 мм1.3 м/с4 %
    04:00Небольшая облачность+12°C86 %763 мм1.2 м/с4 %
    07:00Облачно с прояснениями+12°C84 %764 мм1.3 м/с8 %
    10:00Облачно с прояснениями+18°C68 %765 мм1.0 м/с17 %
    13:00Облачно с прояснениями+20°C62 %765 мм1.5 м/с6 %
    16:00Облачно с прояснениями+21°C61 %764 мм2.8 м/с5 %
    19:00Облачно с прояснениями+18°C72 %764 мм2.8 м/с3 %
    22:00Ясно и безоблачно+16°C82 %765 мм4.6 м/с2 %
  • 16апреля
    Вторник
    +13°
    +25°
    Ясно и безоблачно
    ВремяПогодаТемператураВлажностьДавлениеВетер, м/сВероятность осадков
    01:00Ясно и безоблачно+15°C78 %764 мм5.8 м/с2 %
    04:00Облачно с прояснениями+14°C76 %763 мм6.9 м/с2 %
    07:00Ясно и безоблачно+14°C76 %764 мм6.2 м/с2 %
    10:00Ясно и безоблачно+21°C59 %764 мм4.5 м/с2 %
    13:00Ясно и безоблачно+25°C50 %764 мм7.4 м/с2 %
    16:00Ясно и безоблачно+23°C58 %763 мм8.3 м/с2 %
    19:00Ясно и безоблачно+17°C69 %763 мм8.3 м/с2 %
    22:00Ясно и безоблачно+15°C70 %763 мм8.4 м/с2 %
  • 17апреля
    Среда
    +14°
    +22°
    Ясно и безоблачно
    ВремяПогодаТемператураВлажностьДавлениеВетер, м/сВероятность осадков
    01:00Облачно с прояснениями+14°C77 %763 мм7.8 м/с2 %
    04:00Ясно и безоблачно+14°C86 %761 мм8.3 м/с2 %
    07:00Облачно с прояснениями+13°C92 %761 мм9.2 м/с2 %
    10:00Облачно с прояснениями+18°C77 %762 мм9.7 м/с2 %
    13:00Ясно и безоблачно+21°C65 %761 мм10.1 м/с2 %
    16:00Ясно и безоблачно+21°C64 %760 мм9.7 м/с2 %
    19:00Ясно и безоблачно+17°C78 %760 мм8.1 м/с2 %
    22:00Ясно и безоблачно+16°C81 %761 мм6.7 м/с2 %
  • 18апреля
    Четверг
    +15°
    +25°
    Ясно и безоблачно
    ВремяПогодаТемператураВлажностьДавлениеВетер, м/сВероятность осадков
    01:00Ясно и безоблачно+16°C79 %760 мм6.3 м/с2 %
    04:00Ясно и безоблачно+15°C80 %759 мм6.2 м/с2 %
    07:00Ясно и безоблачно+15°C80 %759 мм6.4 м/с2 %
    10:00Ясно и безоблачно+21°C57 %759 мм7.7 м/с2 %
    13:00Ясно и безоблачно+25°C47 %758 мм9.0 м/с2 %
    16:00Ясно и безоблачно+24°C45 %756 мм9.2 м/с2 %
    19:00Ясно и безоблачно+19°C58 %756 мм7.9 м/с2 %
    22:00Ясно и безоблачно+17°C66 %757 мм6.9 м/с2 %
Мы используем cookies
Соглашаюсь